sensor_id;sensor_type;location;lat;lon;timestamp;P1;durP1;ratioP1;P2;durP2;ratioP2
63218;SDS011;49320;52.512;13.448;2023-06-19T00:01:07;7.30;;;6.60;;
63218;SDS011;49320;52.512;13.448;2023-06-19T00:03:34;7.65;;;6.95;;
63218;SDS011;49320;52.512;13.448;2023-06-19T00:06:01;7.63;;;6.95;;
63218;SDS011;49320;52.512;13.448;2023-06-19T00:08:27;7.38;;;6.68;;
63218;SDS011;49320;52.512;13.448;2023-06-19T00:10:54;6.70;;;6.10;;
63218;SDS011;49320;52.512;13.448;2023-06-19T00:13:21;6.85;;;6.25;;
63218;SDS011;49320;52.512;13.448;2023-06-19T00:15:48;7.50;;;6.57;;
63218;SDS011;49320;52.512;13.448;2023-06-19T00:18:15;6.80;;;6.20;;
63218;SDS011;49320;52.512;13.448;2023-06-19T00:20:44;8.07;;;7.28;;
63218;SDS011;49320;52.512;13.448;2023-06-19T00:23:12;7.18;;;6.47;;
63218;SDS011;49320;52.512;13.448;2023-06-19T00:25:40;7.75;;;6.75;;
63218;SDS011;49320;52.512;13.448;2023-06-19T00:28:09;7.03;;;6.43;;
63218;SDS011;49320;52.512;13.448;2023-06-19T00:30:37;8.30;;;7.38;;
63218;SDS011;49320;52.512;13.448;2023-06-19T00:33:04;7.50;;;6.90;;
63218;SDS011;49320;52.512;13.448;2023-06-19T00:35:33;7.28;;;6.68;;
63218;SDS011;49320;52.512;13.448;2023-06-19T00:38:00;8.90;;;6.57;;
63218;SDS011;49320;52.512;13.448;2023-06-19T00:40:27;7.75;;;6.95;;
63218;SDS011;49320;52.512;13.448;2023-06-19T00:42:57;7.32;;;6.68;;
63218;SDS011;49320;52.512;13.448;2023-06-19T00:45:24;7.60;;;6.90;;
63218;SDS011;49320;52.512;13.448;2023-06-19T00:47:55;7.63;;;7.03;;
63218;SDS011;49320;52.512;13.448;2023-06-19T00:50:25;7.38;;;6.78;;
63218;SDS011;49320;52.512;13.448;2023-06-19T00:52:54;7.32;;;6.72;;
63218;SDS011;49320;52.512;13.448;2023-06-19T00:55:21;8.25;;;6.93;;
63218;SDS011;49320;52.512;13.448;2023-06-19T00:57:49;7.80;;;7.10;;
63218;SDS011;49320;52.512;13.448;2023-06-19T01:00:18;8.15;;;7.45;;
63218;SDS011;49320;52.512;13.448;2023-06-19T01:02:46;8.52;;;7.75;;
63218;SDS011;49320;52.512;13.448;2023-06-19T01:05:14;7.90;;;7.20;;
63218;SDS011;49320;52.512;13.448;2023-06-19T01:10:20;7.90;;;7.30;;
63218;SDS011;49320;52.512;13.448;2023-06-19T01:12:57;19.42;;;14.40;;
63218;SDS011;49320;52.512;13.448;2023-06-19T01:15:30;16.48;;;11.75;;
63218;SDS011;49320;52.512;13.448;2023-06-19T01:17:58;13.30;;;10.77;;
63218;SDS011;49320;52.512;13.448;2023-06-19T01:20:27;10.40;;;9.35;;
63218;SDS011;49320;52.512;13.448;2023-06-19T01:22:55;9.30;;;8.40;;
63218;SDS011;49320;52.512;13.448;2023-06-19T01:25:23;9.55;;;8.65;;
63218;SDS011;49320;52.512;13.448;2023-06-19T01:27:50;9.60;;;8.52;;
63218;SDS011;49320;52.512;13.448;2023-06-19T01:30:18;9.10;;;8.20;;
63218;SDS011;49320;52.512;13.448;2023-06-19T01:33:05;8.63;;;7.80;;
63218;SDS011;49320;52.512;13.448;2023-06-19T01:35:48;8.05;;;7.35;;
63218;SDS011;49320;52.512;13.448;2023-06-19T01:38:16;8.05;;;7.35;;
63218;SDS011;49320;52.512;13.448;2023-06-19T01:40:47;8.70;;;8.00;;
63218;SDS011;49320;52.512;13.448;2023-06-19T01:43:16;7.95;;;7.20;;
63218;SDS011;49320;52.512;13.448;2023-06-19T01:45:44;7.80;;;7.10;;
63218;SDS011;49320;52.512;13.448;2023-06-19T01:48:13;8.20;;;7.50;;
63218;SDS011;49320;52.512;13.448;2023-06-19T01:50:47;7.88;;;7.18;;
63218;SDS011;49320;52.512;13.448;2023-06-19T01:53:15;8.05;;;7.38;;
63218;SDS011;49320;52.512;13.448;2023-06-19T01:55:42;7.68;;;6.90;;
63218;SDS011;49320;52.512;13.448;2023-06-19T01:58:09;7.82;;;7.22;;
63218;SDS011;49320;52.512;13.448;2023-06-19T02:00:36;8.25;;;7.55;;
63218;SDS011;49320;52.512;13.448;2023-06-19T02:03:04;8.55;;;7.85;;
63218;SDS011;49320;52.512;13.448;2023-06-19T02:05:31;10.45;;;9.55;;
63218;SDS011;49320;52.512;13.448;2023-06-19T02:07:58;9.77;;;8.98;;
63218;SDS011;49320;52.512;13.448;2023-06-19T02:10:25;9.30;;;8.45;;
63218;SDS011;49320;52.512;13.448;2023-06-19T02:12:52;9.05;;;8.25;;
63218;SDS011;49320;52.512;13.448;2023-06-19T02:15:19;8.68;;;7.90;;
63218;SDS011;49320;52.512;13.448;2023-06-19T02:17:46;7.68;;;7.07;;
63218;SDS011;49320;52.512;13.448;2023-06-19T02:20:13;7.93;;;7.22;;
63218;SDS011;49320;52.512;13.448;2023-06-19T02:22:41;8.35;;;7.55;;
63218;SDS011;49320;52.512;13.448;2023-06-19T02:25:08;9.07;;;8.27;;
63218;SDS011;49320;52.512;13.448;2023-06-19T02:27:34;9.35;;;8.55;;
63218;SDS011;49320;52.512;13.448;2023-06-19T02:30:01;8.38;;;7.68;;
63218;SDS011;49320;52.512;13.448;2023-06-19T02:32:29;8.43;;;7.72;;
63218;SDS011;49320;52.512;13.448;2023-06-19T02:34:56;7.88;;;7.15;;
63218;SDS011;49320;52.512;13.448;2023-06-19T02:37:24;8.43;;;7.60;;
63218;SDS011;49320;52.512;13.448;2023-06-19T02:39:51;8.48;;;7.72;;
63218;SDS011;49320;52.512;13.448;2023-06-19T02:42:18;8.60;;;7.90;;
63218;SDS011;49320;52.512;13.448;2023-06-19T02:44:45;7.90;;;7.20;;
63218;SDS011;49320;52.512;13.448;2023-06-19T02:47:11;8.65;;;7.80;;
63218;SDS011;49320;52.512;13.448;2023-06-19T02:49:38;8.32;;;7.63;;
63218;SDS011;49320;52.512;13.448;2023-06-19T02:52:05;7.80;;;7.10;;
63218;SDS011;49320;52.512;13.448;2023-06-19T02:54:33;8.07;;;7.38;;
63218;SDS011;49320;52.512;13.448;2023-06-19T02:57:00;8.43;;;7.72;;
63218;SDS011;49320;52.512;13.448;2023-06-19T02:59:27;8.70;;;7.90;;
63218;SDS011;49320;52.512;13.448;2023-06-19T03:01:53;8.52;;;7.82;;
63218;SDS011;49320;52.512;13.448;2023-06-19T03:04:20;8.40;;;7.70;;
63218;SDS011;49320;52.512;13.448;2023-06-19T03:06:47;8.35;;;7.57;;
63218;SDS011;49320;52.512;13.448;2023-06-19T03:09:14;8.23;;;7.53;;
63218;SDS011;49320;52.512;13.448;2023-06-19T03:11:41;8.65;;;7.85;;
63218;SDS011;49320;52.512;13.448;2023-06-19T03:14:08;9.02;;;8.13;;
63218;SDS011;49320;52.512;13.448;2023-06-19T03:16:35;8.75;;;8.05;;
63218;SDS011;49320;52.512;13.448;2023-06-19T03:19:02;9.40;;;8.60;;
63218;SDS011;49320;52.512;13.448;2023-06-19T03:21:29;8.32;;;7.63;;
63218;SDS011;49320;52.512;13.448;2023-06-19T03:23:56;8.85;;;8.15;;
63218;SDS011;49320;52.512;13.448;2023-06-19T03:26:23;9.55;;;8.75;;
63218;SDS011;49320;52.512;13.448;2023-06-19T03:28:51;8.82;;;8.02;;
63218;SDS011;49320;52.512;13.448;2023-06-19T03:31:18;9.50;;;8.65;;
63218;SDS011;49320;52.512;13.448;2023-06-19T03:33:45;9.20;;;7.88;;
63218;SDS011;49320;52.512;13.448;2023-06-19T03:36:11;9.60;;;8.80;;
63218;SDS011;49320;52.512;13.448;2023-06-19T03:38:38;9.38;;;8.57;;
63218;SDS011;49320;52.512;13.448;2023-06-19T03:41:06;8.85;;;8.15;;
63218;SDS011;49320;52.512;13.448;2023-06-19T03:43:32;8.85;;;8.13;;
63218;SDS011;49320;52.512;13.448;2023-06-19T03:45:59;8.85;;;7.80;;
63218;SDS011;49320;52.512;13.448;2023-06-19T03:48:26;9.80;;;9.00;;
63218;SDS011;49320;52.512;13.448;2023-06-19T03:50:53;8.80;;;8.10;;
63218;SDS011;49320;52.512;13.448;2023-06-19T03:53:21;9.13;;;8.23;;
63218;SDS011;49320;52.512;13.448;2023-06-19T03:55:48;9.32;;;8.52;;
63218;SDS011;49320;52.512;13.448;2023-06-19T03:58:15;9.43;;;8.63;;
63218;SDS011;49320;52.512;13.448;2023-06-19T04:00:42;9.93;;;8.98;;
63218;SDS011;49320;52.512;13.448;2023-06-19T04:03:09;9.45;;;8.65;;
63218;SDS011;49320;52.512;13.448;2023-06-19T04:05:36;9.85;;;9.05;;
63218;SDS011;49320;52.512;13.448;2023-06-19T04:08:03;9.32;;;8.52;;
63218;SDS011;49320;52.512;13.448;2023-06-19T04:10:30;8.98;;;8.27;;
63218;SDS011;49320;52.512;13.448;2023-06-19T04:13:00;9.95;;;9.05;;
63218;SDS011;49320;52.512;13.448;2023-06-19T04:15:27;10.32;;;9.30;;
63218;SDS011;49320;52.512;13.448;2023-06-19T04:17:54;9.18;;;8.38;;
63218;SDS011;49320;52.512;13.448;2023-06-19T04:20:20;9.45;;;8.55;;
63218;SDS011;49320;52.512;13.448;2023-06-19T04:22:48;10.45;;;9.50;;
63218;SDS011;49320;52.512;13.448;2023-06-19T04:25:15;10.93;;;9.73;;
63218;SDS011;49320;52.512;13.448;2023-06-19T04:27:42;10.38;;;9.48;;
63218;SDS011;49320;52.512;13.448;2023-06-19T04:30:11;9.63;;;8.75;;
63218;SDS011;49320;52.512;13.448;2023-06-19T04:32:38;9.43;;;8.55;;
63218;SDS011;49320;52.512;13.448;2023-06-19T04:35:08;10.52;;;9.55;;
63218;SDS011;49320;52.512;13.448;2023-06-19T04:37:37;10.45;;;9.55;;
63218;SDS011;49320;52.512;13.448;2023-06-19T04:40:04;10.13;;;9.23;;
63218;SDS011;49320;52.512;13.448;2023-06-19T04:42:33;9.38;;;8.43;;
63218;SDS011;49320;52.512;13.448;2023-06-19T04:45:00;9.50;;;8.70;;
63218;SDS011;49320;52.512;13.448;2023-06-19T04:47:26;10.00;;;9.10;;
63218;SDS011;49320;52.512;13.448;2023-06-19T04:50:09;9.18;;;8.27;;
63218;SDS011;49320;52.512;13.448;2023-06-19T04:52:36;9.13;;;8.35;;
63218;SDS011;49320;52.512;13.448;2023-06-19T04:55:07;9.63;;;8.82;;
63218;SDS011;49320;52.512;13.448;2023-06-19T04:57:37;9.30;;;8.40;;
63218;SDS011;49320;52.512;13.448;2023-06-19T05:00:04;8.43;;;7.72;;
63218;SDS011;49320;52.512;13.448;2023-06-19T05:02:33;9.13;;;8.43;;
63218;SDS011;49320;52.512;13.448;2023-06-19T05:05:00;9.30;;;8.50;;
63218;SDS011;49320;52.512;13.448;2023-06-19T05:07:29;9.48;;;8.63;;
63218;SDS011;49320;52.512;13.448;2023-06-19T05:09:59;9.68;;;8.80;;
63218;SDS011;49320;52.512;13.448;2023-06-19T05:12:26;9.85;;;8.98;;
63218;SDS011;49320;52.512;13.448;2023-06-19T05:14:53;9.38;;;8.57;;
63218;SDS011;49320;52.512;13.448;2023-06-19T05:17:20;9.73;;;8.82;;
63218;SDS011;49320;52.512;13.448;2023-06-19T05:19:47;10.05;;;9.18;;
63218;SDS011;49320;52.512;13.448;2023-06-19T05:22:14;9.88;;;8.88;;
63218;SDS011;49320;52.512;13.448;2023-06-19T05:24:41;9.43;;;8.63;;
63218;SDS011;49320;52.512;13.448;2023-06-19T05:27:08;10.98;;;9.23;;
63218;SDS011;49320;52.512;13.448;2023-06-19T05:29:35;10.15;;;9.23;;
63218;SDS011;49320;52.512;13.448;2023-06-19T05:32:02;9.88;;;9.07;;
63218;SDS011;49320;52.512;13.448;2023-06-19T05:34:29;9.75;;;8.90;;
63218;SDS011;49320;52.512;13.448;2023-06-19T05:36:57;10.07;;;9.23;;
63218;SDS011;49320;52.512;13.448;2023-06-19T05:39:26;10.05;;;9.25;;
63218;SDS011;49320;52.512;13.448;2023-06-19T05:41:54;10.40;;;9.50;;
63218;SDS011;49320;52.512;13.448;2023-06-19T05:44:21;10.02;;;9.18;;
63218;SDS011;49320;52.512;13.448;2023-06-19T05:46:48;10.55;;;9.60;;
63218;SDS011;49320;52.512;13.448;2023-06-19T05:49:15;10.98;;;9.98;;
63218;SDS011;49320;52.512;13.448;2023-06-19T05:51:42;10.15;;;9.15;;
63218;SDS011;49320;52.512;13.448;2023-06-19T05:54:09;9.88;;;9.07;;
63218;SDS011;49320;52.512;13.448;2023-06-19T05:56:36;10.73;;;9.75;;
63218;SDS011;49320;52.512;13.448;2023-06-19T05:59:03;10.48;;;9.57;;
63218;SDS011;49320;52.512;13.448;2023-06-19T06:01:30;10.50;;;9.60;;
63218;SDS011;49320;52.512;13.448;2023-06-19T06:03:58;10.48;;;9.52;;
63218;SDS011;49320;52.512;13.448;2023-06-19T06:06:25;10.88;;;9.98;;
63218;SDS011;49320;52.512;13.448;2023-06-19T06:08:52;11.90;;;10.77;;
63218;SDS011;49320;52.512;13.448;2023-06-19T06:11:21;12.05;;;10.88;;
63218;SDS011;49320;52.512;13.448;2023-06-19T06:13:48;10.63;;;9.73;;
63218;SDS011;49320;52.512;13.448;2023-06-19T06:16:15;11.27;;;10.35;;
63218;SDS011;49320;52.512;13.448;2023-06-19T06:18:42;9.55;;;8.75;;
63218;SDS011;49320;52.512;13.448;2023-06-19T06:21:11;11.27;;;10.27;;
63218;SDS011;49320;52.512;13.448;2023-06-19T06:23:40;11.15;;;10.07;;
63218;SDS011;49320;52.512;13.448;2023-06-19T06:26:07;9.90;;;9.05;;
63218;SDS011;49320;52.512;13.448;2023-06-19T06:28:34;10.95;;;10.02;;
63218;SDS011;49320;52.512;13.448;2023-06-19T06:31:01;11.38;;;10.27;;
63218;SDS011;49320;52.512;13.448;2023-06-19T06:33:28;11.25;;;10.25;;
63218;SDS011;49320;52.512;13.448;2023-06-19T06:35:55;10.25;;;9.32;;
63218;SDS011;49320;52.512;13.448;2023-06-19T06:38:24;11.25;;;10.23;;
63218;SDS011;49320;52.512;13.448;2023-06-19T06:40:50;10.75;;;9.75;;
63218;SDS011;49320;52.512;13.448;2023-06-19T06:43:18;10.88;;;9.80;;
63218;SDS011;49320;52.512;13.448;2023-06-19T06:45:44;10.82;;;9.93;;
63218;SDS011;49320;52.512;13.448;2023-06-19T06:48:12;10.63;;;9.73;;
63218;SDS011;49320;52.512;13.448;2023-06-19T06:50:39;10.93;;;10.02;;
63218;SDS011;49320;52.512;13.448;2023-06-19T06:53:07;10.90;;;9.80;;
63218;SDS011;49320;52.512;13.448;2023-06-19T06:55:34;10.40;;;9.48;;
63218;SDS011;49320;52.512;13.448;2023-06-19T06:58:01;10.00;;;9.15;;
63218;SDS011;49320;52.512;13.448;2023-06-19T07:00:28;10.05;;;9.25;;
63218;SDS011;49320;52.512;13.448;2023-06-19T07:02:55;10.88;;;9.88;;
63218;SDS011;49320;52.512;13.448;2023-06-19T07:05:23;10.50;;;9.55;;
63218;SDS011;49320;52.512;13.448;2023-06-19T07:07:49;11.13;;;9.50;;
63218;SDS011;49320;52.512;13.448;2023-06-19T07:10:16;10.65;;;9.75;;
63218;SDS011;49320;52.512;13.448;2023-06-19T07:12:44;10.07;;;9.23;;
63218;SDS011;49320;52.512;13.448;2023-06-19T07:15:15;10.80;;;9.80;;
63218;SDS011;49320;52.512;13.448;2023-06-19T07:17:42;10.27;;;9.27;;
63218;SDS011;49320;52.512;13.448;2023-06-19T07:20:11;10.82;;;9.52;;
63218;SDS011;49320;52.512;13.448;2023-06-19T07:22:38;10.68;;;9.68;;
63218;SDS011;49320;52.512;13.448;2023-06-19T07:25:05;10.30;;;9.45;;
63218;SDS011;49320;52.512;13.448;2023-06-19T07:27:33;10.52;;;9.52;;
63218;SDS011;49320;52.512;13.448;2023-06-19T07:30:00;10.57;;;9.57;;
63218;SDS011;49320;52.512;13.448;2023-06-19T07:32:27;10.82;;;9.93;;
63218;SDS011;49320;52.512;13.448;2023-06-19T07:34:54;9.60;;;8.80;;
63218;SDS011;49320;52.512;13.448;2023-06-19T07:37:21;10.25;;;9.38;;
63218;SDS011;49320;52.512;13.448;2023-06-19T07:39:48;10.82;;;9.82;;
63218;SDS011;49320;52.512;13.448;2023-06-19T07:42:18;11.25;;;9.60;;
63218;SDS011;49320;52.512;13.448;2023-06-19T07:44:45;12.30;;;9.05;;
63218;SDS011;49320;52.512;13.448;2023-06-19T07:47:12;9.88;;;8.88;;
63218;SDS011;49320;52.512;13.448;2023-06-19T07:49:42;9.85;;;8.75;;
63218;SDS011;49320;52.512;13.448;2023-06-19T07:52:09;9.85;;;8.95;;
63218;SDS011;49320;52.512;13.448;2023-06-19T07:54:36;10.35;;;9.45;;
63218;SDS011;49320;52.512;13.448;2023-06-19T07:57:17;12.50;;;10.13;;
63218;SDS011;49320;52.512;13.448;2023-06-19T07:59:44;9.95;;;9.10;;
63218;SDS011;49320;52.512;13.448;2023-06-19T08:02:12;10.90;;;9.80;;
63218;SDS011;49320;52.512;13.448;2023-06-19T08:04:39;10.63;;;9.63;;
63218;SDS011;49320;52.512;13.448;2023-06-19T08:07:06;10.88;;;9.98;;
63218;SDS011;49320;52.512;13.448;2023-06-19T08:09:33;11.02;;;9.90;;
63218;SDS011;49320;52.512;13.448;2023-06-19T08:12:00;10.13;;;9.13;;
63218;SDS011;49320;52.512;13.448;2023-06-19T08:14:28;10.30;;;8.55;;
63218;SDS011;49320;52.512;13.448;2023-06-19T08:16:55;10.00;;;9.10;;
63218;SDS011;49320;52.512;13.448;2023-06-19T08:19:22;10.68;;;8.68;;
63218;SDS011;49320;52.512;13.448;2023-06-19T08:21:49;9.23;;;8.32;;
63218;SDS011;49320;52.512;13.448;2023-06-19T08:24:16;8.93;;;8.23;;
63218;SDS011;49320;52.512;13.448;2023-06-19T08:26:43;9.75;;;8.75;;
63218;SDS011;49320;52.512;13.448;2023-06-19T08:29:10;9.85;;;8.90;;
63218;SDS011;49320;52.512;13.448;2023-06-19T08:31:37;9.35;;;8.55;;
63218;SDS011;49320;52.512;13.448;2023-06-19T08:34:03;9.63;;;8.60;;
63218;SDS011;49320;52.512;13.448;2023-06-19T08:36:34;9.15;;;8.35;;
63218;SDS011;49320;52.512;13.448;2023-06-19T08:39:01;8.70;;;8.00;;
63218;SDS011;49320;52.512;13.448;2023-06-19T08:41:29;8.70;;;7.95;;
63218;SDS011;49320;52.512;13.448;2023-06-19T08:43:55;8.80;;;8.02;;
63218;SDS011;49320;52.512;13.448;2023-06-19T08:46:22;9.68;;;8.77;;
63218;SDS011;49320;52.512;13.448;2023-06-19T08:48:49;9.70;;;8.80;;
63218;SDS011;49320;52.512;13.448;2023-06-19T08:51:16;8.68;;;7.97;;
63218;SDS011;49320;52.512;13.448;2023-06-19T08:53:44;8.90;;;8.05;;
63218;SDS011;49320;52.512;13.448;2023-06-19T08:56:23;9.35;;;8.55;;
63218;SDS011;49320;52.512;13.448;2023-06-19T08:58:50;8.77;;;7.97;;
63218;SDS011;49320;52.512;13.448;2023-06-19T09:01:17;9.98;;;8.18;;
63218;SDS011;49320;52.512;13.448;2023-06-19T09:03:45;9.70;;;8.55;;
63218;SDS011;49320;52.512;13.448;2023-06-19T09:06:16;13.80;;;9.23;;
63218;SDS011;49320;52.512;13.448;2023-06-19T09:08:44;9.57;;;8.57;;
63218;SDS011;49320;52.512;13.448;2023-06-19T09:11:11;9.88;;;9.02;;
63218;SDS011;49320;52.512;13.448;2023-06-19T09:13:37;8.93;;;8.23;;
63218;SDS011;49320;52.512;13.448;2023-06-19T09:16:05;11.13;;;9.20;;
63218;SDS011;49320;52.512;13.448;2023-06-19T09:18:46;9.77;;;8.90;;
63218;SDS011;49320;52.512;13.448;2023-06-19T09:21:18;9.38;;;8.57;;
63218;SDS011;49320;52.512;13.448;2023-06-19T09:23:48;9.25;;;8.35;;
63218;SDS011;49320;52.512;13.448;2023-06-19T09:26:18;9.77;;;8.25;;
63218;SDS011;49320;52.512;13.448;2023-06-19T09:28:46;9.55;;;8.70;;
63218;SDS011;49320;52.512;13.448;2023-06-19T09:31:13;9.98;;;9.05;;
63218;SDS011;49320;52.512;13.448;2023-06-19T09:33:40;9.13;;;8.27;;
63218;SDS011;49320;52.512;13.448;2023-06-19T09:36:07;9.77;;;8.85;;
63218;SDS011;49320;52.512;13.448;2023-06-19T09:38:37;10.52;;;9.63;;
63218;SDS011;49320;52.512;13.448;2023-06-19T09:41:06;9.45;;;8.75;;
63218;SDS011;49320;52.512;13.448;2023-06-19T09:43:38;9.43;;;8.55;;
63218;SDS011;49320;52.512;13.448;2023-06-19T09:46:09;11.02;;;9.93;;
63218;SDS011;49320;52.512;13.448;2023-06-19T09:48:44;9.57;;;8.68;;
63218;SDS011;49320;52.512;13.448;2023-06-19T09:51:17;9.50;;;8.70;;
63218;SDS011;49320;52.512;13.448;2023-06-19T09:53:47;10.13;;;9.23;;
63218;SDS011;49320;52.512;13.448;2023-06-19T09:56:16;9.50;;;8.60;;
63218;SDS011;49320;52.512;13.448;2023-06-19T09:58:49;9.32;;;8.52;;
63218;SDS011;49320;52.512;13.448;2023-06-19T10:01:19;10.75;;;9.80;;
63218;SDS011;49320;52.512;13.448;2023-06-19T10:03:47;9.07;;;8.32;;
63218;SDS011;49320;52.512;13.448;2023-06-19T10:06:14;9.57;;;8.55;;
63218;SDS011;49320;52.512;13.448;2023-06-19T10:08:44;10.05;;;9.15;;
63218;SDS011;49320;52.512;13.448;2023-06-19T10:11:11;9.80;;;9.00;;
63218;SDS011;49320;52.512;13.448;2023-06-19T10:13:40;10.10;;;9.20;;
63218;SDS011;49320;52.512;13.448;2023-06-19T10:16:19;10.00;;;9.07;;
63218;SDS011;49320;52.512;13.448;2023-06-19T10:18:48;10.68;;;9.68;;
63218;SDS011;49320;52.512;13.448;2023-06-19T10:21:16;10.73;;;9.68;;
63218;SDS011;49320;52.512;13.448;2023-06-19T10:23:54;9.52;;;8.70;;
63218;SDS011;49320;52.512;13.448;2023-06-19T10:26:30;9.85;;;9.05;;
63218;SDS011;49320;52.512;13.448;2023-06-19T10:29:02;10.30;;;9.35;;
63218;SDS011;49320;52.512;13.448;2023-06-19T10:31:44;9.57;;;8.77;;
63218;SDS011;49320;52.512;13.448;2023-06-19T10:34:11;10.07;;;9.18;;
63218;SDS011;49320;52.512;13.448;2023-06-19T10:36:38;9.98;;;8.98;;
63218;SDS011;49320;52.512;13.448;2023-06-19T10:39:05;9.43;;;8.68;;
63218;SDS011;49320;52.512;13.448;2023-06-19T10:41:33;9.68;;;8.88;;
63218;SDS011;49320;52.512;13.448;2023-06-19T10:44:00;10.50;;;9.55;;
63218;SDS011;49320;52.512;13.448;2023-06-19T10:46:32;10.73;;;9.75;;
63218;SDS011;49320;52.512;13.448;2023-06-19T10:49:04;9.07;;;8.32;;
63218;SDS011;49320;52.512;13.448;2023-06-19T10:51:34;10.02;;;9.13;;
63218;SDS011;49320;52.512;13.448;2023-06-19T10:54:03;10.35;;;9.25;;
63218;SDS011;49320;52.512;13.448;2023-06-19T10:56:30;10.13;;;9.23;;
63218;SDS011;49320;52.512;13.448;2023-06-19T10:59:02;10.13;;;9.20;;
63218;SDS011;49320;52.512;13.448;2023-06-19T11:01:47;9.80;;;8.90;;
63218;SDS011;49320;52.512;13.448;2023-06-19T11:04:17;9.95;;;9.15;;
63218;SDS011;49320;52.512;13.448;2023-06-19T11:06:44;10.82;;;9.82;;
63218;SDS011;49320;52.512;13.448;2023-06-19T11:09:13;9.35;;;8.55;;
63218;SDS011;49320;52.512;13.448;2023-06-19T11:11:46;10.05;;;9.25;;
63218;SDS011;49320;52.512;13.448;2023-06-19T11:14:15;9.82;;;9.00;;
63218;SDS011;49320;52.512;13.448;2023-06-19T11:16:45;9.63;;;8.70;;
63218;SDS011;49320;52.512;13.448;2023-06-19T11:19:15;9.65;;;8.85;;
63218;SDS011;49320;52.512;13.448;2023-06-19T11:21:45;9.27;;;8.48;;
63218;SDS011;49320;52.512;13.448;2023-06-19T11:24:15;8.90;;;8.10;;
63218;SDS011;49320;52.512;13.448;2023-06-19T11:26:43;8.05;;;7.45;;
63218;SDS011;49320;52.512;13.448;2023-06-19T11:29:19;8.57;;;7.85;;
63218;SDS011;49320;52.512;13.448;2023-06-19T11:31:51;8.03;;;7.40;;
63218;SDS011;49320;52.512;13.448;2023-06-19T11:34:31;8.18;;;7.47;;
63218;SDS011;49320;52.512;13.448;2023-06-19T11:37:24;8.10;;;7.38;;
63218;SDS011;49320;52.512;13.448;2023-06-19T11:39:50;8.32;;;7.63;;
63218;SDS011;49320;52.512;13.448;2023-06-19T11:42:18;9.30;;;8.50;;
63218;SDS011;49320;52.512;13.448;2023-06-19T11:44:54;8.77;;;7.97;;
63218;SDS011;49320;52.512;13.448;2023-06-19T11:47:33;8.43;;;7.63;;
63218;SDS011;49320;52.512;13.448;2023-06-19T11:50:00;9.23;;;8.38;;
63218;SDS011;49320;52.512;13.448;2023-06-19T11:52:31;8.75;;;8.05;;
63218;SDS011;49320;52.512;13.448;2023-06-19T11:54:58;8.48;;;7.75;;
63218;SDS011;49320;52.512;13.448;2023-06-19T11:57:26;8.70;;;7.82;;
63218;SDS011;49320;52.512;13.448;2023-06-19T11:59:53;8.38;;;7.45;;
63218;SDS011;49320;52.512;13.448;2023-06-19T12:02:20;7.55;;;6.95;;
63218;SDS011;49320;52.512;13.448;2023-06-19T12:04:48;8.38;;;7.57;;
63218;SDS011;49320;52.512;13.448;2023-06-19T12:07:15;8.65;;;7.90;;
63218;SDS011;49320;52.512;13.448;2023-06-19T12:09:42;8.13;;;7.43;;
63218;SDS011;49320;52.512;13.448;2023-06-19T12:12:09;9.75;;;8.75;;
63218;SDS011;49320;52.512;13.448;2023-06-19T12:14:36;8.90;;;8.18;;
63218;SDS011;49320;52.512;13.448;2023-06-19T12:17:03;8.95;;;8.25;;
63218;SDS011;49320;52.512;13.448;2023-06-19T12:19:30;8.60;;;7.90;;
63218;SDS011;49320;52.512;13.448;2023-06-19T12:21:57;7.85;;;7.22;;
63218;SDS011;49320;52.512;13.448;2023-06-19T12:24:25;8.25;;;7.65;;
63218;SDS011;49320;52.512;13.448;2023-06-19T12:26:52;8.10;;;7.40;;
63218;SDS011;49320;52.512;13.448;2023-06-19T12:29:19;8.25;;;7.43;;
63218;SDS011;49320;52.512;13.448;2023-06-19T12:31:47;8.52;;;7.72;;
63218;SDS011;49320;52.512;13.448;2023-06-19T12:34:13;9.05;;;8.35;;
63218;SDS011;49320;52.512;13.448;2023-06-19T12:36:56;7.87;;;7.20;;
63218;SDS011;49320;52.512;13.448;2023-06-19T12:39:23;7.70;;;6.85;;
63218;SDS011;49320;52.512;13.448;2023-06-19T12:41:51;8.00;;;7.30;;
63218;SDS011;49320;52.512;13.448;2023-06-19T12:44:18;7.30;;;6.70;;
63218;SDS011;49320;52.512;13.448;2023-06-19T12:46:48;7.60;;;6.90;;
63218;SDS011;49320;52.512;13.448;2023-06-19T12:49:15;9.32;;;7.63;;
63218;SDS011;49320;52.512;13.448;2023-06-19T12:51:41;7.35;;;6.75;;
63218;SDS011;49320;52.512;13.448;2023-06-19T12:54:08;7.13;;;6.47;;
63218;SDS011;49320;52.512;13.448;2023-06-19T12:56:35;7.40;;;6.85;;
63218;SDS011;49320;52.512;13.448;2023-06-19T12:59:02;8.18;;;7.40;;
63218;SDS011;49320;52.512;13.448;2023-06-19T13:01:29;7.60;;;7.00;;
63218;SDS011;49320;52.512;13.448;2023-06-19T13:03:56;7.70;;;7.10;;
63218;SDS011;49320;52.512;13.448;2023-06-19T13:06:23;8.38;;;6.97;;
63218;SDS011;49320;52.512;13.448;2023-06-19T13:08:50;7.85;;;7.15;;
63218;SDS011;49320;52.512;13.448;2023-06-19T13:11:17;8.93;;;7.30;;
63218;SDS011;49320;52.512;13.448;2023-06-19T13:13:44;7.80;;;7.20;;
63218;SDS011;49320;52.512;13.448;2023-06-19T13:16:11;8.38;;;7.68;;
63218;SDS011;49320;52.512;13.448;2023-06-19T13:18:47;8.38;;;7.68;;
63218;SDS011;49320;52.512;13.448;2023-06-19T13:21:14;8.65;;;7.68;;
63218;SDS011;49320;52.512;13.448;2023-06-19T13:23:41;8.43;;;7.72;;
63218;SDS011;49320;52.512;13.448;2023-06-19T13:26:08;8.43;;;7.72;;
63218;SDS011;49320;52.512;13.448;2023-06-19T13:28:35;7.68;;;6.97;;
63218;SDS011;49320;52.512;13.448;2023-06-19T13:31:03;8.13;;;7.32;;
63218;SDS011;49320;52.512;13.448;2023-06-19T13:33:30;7.85;;;7.13;;
63218;SDS011;49320;52.512;13.448;2023-06-19T13:35:56;6.72;;;6.10;;
63218;SDS011;49320;52.512;13.448;2023-06-19T13:38:23;8.35;;;7.47;;
63218;SDS011;49320;52.512;13.448;2023-06-19T13:40:50;8.30;;;7.53;;
63218;SDS011;49320;52.512;13.448;2023-06-19T13:43:17;8.38;;;7.68;;
63218;SDS011;49320;52.512;13.448;2023-06-19T13:45:45;8.23;;;7.57;;
63218;SDS011;49320;52.512;13.448;2023-06-19T13:48:12;8.25;;;7.05;;
63218;SDS011;49320;52.512;13.448;2023-06-19T13:50:39;8.07;;;7.38;;
63218;SDS011;49320;52.512;13.448;2023-06-19T13:53:06;8.60;;;7.80;;
63218;SDS011;49320;52.512;13.448;2023-06-19T13:55:33;8.25;;;7.45;;
63218;SDS011;49320;52.512;13.448;2023-06-19T13:58:00;8.70;;;7.90;;
63218;SDS011;49320;52.512;13.448;2023-06-19T14:00:27;8.10;;;7.40;;
63218;SDS011;49320;52.512;13.448;2023-06-19T14:02:53;7.78;;;7.07;;
63218;SDS011;49320;52.512;13.448;2023-06-19T14:05:21;9.30;;;8.15;;
63218;SDS011;49320;52.512;13.448;2023-06-19T14:07:48;8.32;;;7.63;;
63218;SDS011;49320;52.512;13.448;2023-06-19T14:10:15;8.25;;;7.55;;
63218;SDS011;49320;52.512;13.448;2023-06-19T14:12:43;8.10;;;7.40;;
63218;SDS011;49320;52.512;13.448;2023-06-19T14:15:10;7.93;;;7.22;;
63218;SDS011;49320;52.512;13.448;2023-06-19T14:17:37;8.32;;;7.50;;
63218;SDS011;49320;52.512;13.448;2023-06-19T14:20:05;8.90;;;8.10;;
63218;SDS011;49320;52.512;13.448;2023-06-19T14:22:34;8.23;;;7.53;;
63218;SDS011;49320;52.512;13.448;2023-06-19T14:25:01;7.95;;;7.35;;
63218;SDS011;49320;52.512;13.448;2023-06-19T14:27:28;8.40;;;7.70;;
63218;SDS011;49320;52.512;13.448;2023-06-19T14:29:56;8.82;;;7.93;;
63218;SDS011;49320;52.512;13.448;2023-06-19T14:32:23;8.10;;;7.40;;
63218;SDS011;49320;52.512;13.448;2023-06-19T14:34:50;8.10;;;7.40;;
63218;SDS011;49320;52.512;13.448;2023-06-19T14:37:17;7.85;;;7.15;;
63218;SDS011;49320;52.512;13.448;2023-06-19T14:39:44;8.65;;;7.95;;